createdAt,value
2023-03-18T00:02:03.962Z,1.98
2023-03-18T00:04:36.774Z,1.96
2023-03-18T00:07:05.950Z,1.97
2023-03-18T00:09:39.844Z,1.93
2023-03-18T00:12:10.229Z,1.89
2023-03-18T00:14:41.535Z,1.84
2023-03-18T00:17:11.122Z,1.81
2023-03-18T00:19:39.990Z,1.76
2023-03-18T00:22:10.047Z,1.72
2023-03-18T00:24:38.919Z,1.67
2023-03-18T00:27:08.968Z,1.62
2023-03-18T00:29:40.873Z,1.59
2023-03-18T00:32:10.652Z,1.54
2023-03-18T00:34:40.037Z,1.53
2023-03-18T00:37:18.323Z,1.51
2023-03-18T00:39:47.343Z,1.48
2023-03-18T00:42:16.955Z,1.48
2023-03-18T00:44:49.277Z,1.49
2023-03-18T00:47:18.078Z,1.49
2023-03-18T00:49:50.882Z,1.45
2023-03-18T00:52:19.629Z,1.44
2023-03-18T00:54:49.649Z,1.45
2023-03-18T00:57:18.696Z,1.49
2023-03-18T00:59:47.805Z,1.50
2023-03-18T01:02:20.370Z,1.47
2023-03-18T01:04:52.687Z,1.43
2023-03-18T01:07:21.684Z,1.45
2023-03-18T01:09:50.884Z,1.44
2023-03-18T01:12:20.586Z,1.39
2023-03-18T01:14:49.495Z,1.36
2023-03-18T01:17:18.612Z,1.32
2023-03-18T01:19:48.223Z,1.29
2023-03-18T01:22:17.238Z,1.32
2023-03-18T01:24:48.628Z,1.31
2023-03-18T01:27:18.306Z,1.30
2023-03-18T01:29:48.108Z,1.31
2023-03-18T01:32:24.320Z,1.33
2023-03-18T01:34:53.228Z,1.33
2023-03-18T01:39:56.380Z,1.35
2023-03-18T01:42:25.308Z,1.39
2023-03-18T01:45:18.951Z,1.41
2023-03-18T01:47:50.190Z,1.42
2023-03-18T01:50:26.436Z,1.40
2023-03-18T01:53:05.739Z,1.38
2023-03-18T01:55:36.652Z,1.38
2023-03-18T01:58:20.109Z,1.36
2023-03-18T02:00:58.919Z,1.36
2023-03-18T02:03:28.774Z,1.36
2023-03-18T02:05:57.899Z,1.36
2023-03-18T02:08:26.810Z,1.35
2023-03-18T02:10:56.184Z,1.32
2023-03-18T02:13:26.951Z,1.27
2023-03-18T02:15:59.971Z,1.22
2023-03-18T02:18:34.776Z,1.14
2023-03-18T02:21:20.266Z,1.12
2023-03-18T02:23:59.077Z,1.11
2023-03-18T02:26:33.888Z,1.15
2023-03-18T02:29:06.803Z,1.13
2023-03-18T02:31:44.442Z,1.12
